sensor_id;sensor_type;location;lat;lon;timestamp;pressure;altitude;pressure_sealevel;temperature;humidity
70434;BME280;57876;47.792;12.960;2024-03-17T00:01:59;97483.78;;;19.35;43.47
70434;BME280;57876;47.792;12.960;2024-03-17T00:04:23;97489.28;;;19.35;43.28
70434;BME280;57876;47.792;12.960;2024-03-17T00:06:48;97488.81;;;19.33;43.47
70434;BME280;57876;47.792;12.960;2024-03-17T00:09:12;97504.94;;;19.35;43.63
70434;BME280;57876;47.792;12.960;2024-03-17T00:11:37;97500.09;;;19.32;43.75
70434;BME280;57876;47.792;12.960;2024-03-17T00:14:02;97501.72;;;19.33;43.63
70434;BME280;57876;47.792;12.960;2024-03-17T00:16:26;97499.31;;;19.31;43.49
70434;BME280;57876;47.792;12.960;2024-03-17T00:18:51;97498.50;;;19.31;43.43
70434;BME280;57876;47.792;12.960;2024-03-17T00:21:15;97500.09;;;19.32;43.57
70434;BME280;57876;47.792;12.960;2024-03-17T00:23:40;97497.38;;;19.32;43.38
70434;BME280;57876;47.792;12.960;2024-03-17T00:26:04;97501.72;;;19.33;43.49
70434;BME280;57876;47.792;12.960;2024-03-17T00:28:29;97499.47;;;19.35;43.53
70434;BME280;57876;47.792;12.960;2024-03-17T00:30:53;97495.56;;;19.36;43.46
70434;BME280;57876;47.792;12.960;2024-03-17T00:33:17;97503.78;;;19.36;43.44
70434;BME280;57876;47.792;12.960;2024-03-17T00:35:43;97506.53;;;19.36;43.54
70434;BME280;57876;47.792;12.960;2024-03-17T00:38:07;97503.50;;;19.38;43.64
70434;BME280;57876;47.792;12.960;2024-03-17T00:40:35;97507.38;;;19.36;43.38
70434;BME280;57876;47.792;12.960;2024-03-17T00:42:59;97506.53;;;19.36;43.39
70434;BME280;57876;47.792;12.960;2024-03-17T00:45:24;97503.00;;;19.35;43.51
70434;BME280;57876;47.792;12.960;2024-03-17T00:47:49;97510.44;;;19.35;43.38
70434;BME280;57876;47.792;12.960;2024-03-17T00:50:13;97506.88;;;19.34;43.48
70434;BME280;57876;47.792;12.960;2024-03-17T00:52:38;97503.66;;;19.32;43.45
70434;BME280;57876;47.792;12.960;2024-03-17T00:55:03;97504.44;;;19.33;43.42
70434;BME280;57876;47.792;12.960;2024-03-17T00:57:28;97501.72;;;19.33;43.51
70434;BME280;57876;47.792;12.960;2024-03-17T00:59:52;97501.72;;;19.33;43.49
70434;BME280;57876;47.792;12.960;2024-03-17T01:02:17;97496.88;;;19.30;43.41
70434;BME280;57876;47.792;12.960;2024-03-17T01:04:42;97507.03;;;19.29;43.59
70434;BME280;57876;47.792;12.960;2024-03-17T01:07:07;97501.56;;;19.29;43.48
70434;BME280;57876;47.792;12.960;2024-03-17T01:09:32;97500.75;;;19.29;43.59
70434;BME280;57876;47.792;12.960;2024-03-17T01:11:56;97500.28;;;19.27;43.59
70434;BME280;57876;47.792;12.960;2024-03-17T01:14:20;97498.31;;;19.27;43.52
70434;BME280;57876;47.792;12.960;2024-03-17T01:16:45;97495.59;;;19.27;43.58
70434;BME280;57876;47.792;12.960;2024-03-17T01:19:10;97498.66;;;19.26;43.62
70434;BME280;57876;47.792;12.960;2024-03-17T01:21:34;97486.56;;;19.27;43.46
70434;BME280;57876;47.792;12.960;2024-03-17T01:23:58;97501.56;;;19.29;43.51
70434;BME280;57876;47.792;12.960;2024-03-17T01:26:23;97490.09;;;19.27;43.53
70434;BME280;57876;47.792;12.960;2024-03-17T01:28:48;97483.16;;;19.30;43.57
70434;BME280;57876;47.792;12.960;2024-03-17T01:31:12;97483.66;;;19.32;43.62
70434;BME280;57876;47.792;12.960;2024-03-17T01:33:37;97488.34;;;19.31;43.53
70434;BME280;57876;47.792;12.960;2024-03-17T01:36:01;97486.09;;;19.33;43.44
70434;BME280;57876;47.792;12.960;2024-03-17T01:38:25;97480.91;;;19.32;43.53
70434;BME280;57876;47.792;12.960;2024-03-17T01:40:50;97480.09;;;19.31;43.57
70434;BME280;57876;47.792;12.960;2024-03-17T01:43:14;97480.91;;;19.32;43.45
70434;BME280;57876;47.792;12.960;2024-03-17T01:45:39;97485.25;;;19.33;43.96
70434;BME280;57876;47.792;12.960;2024-03-17T01:48:04;97473.47;;;19.32;43.64
70434;BME280;57876;47.792;12.960;2024-03-17T01:50:36;97469.94;;;19.32;43.65
70434;BME280;57876;47.792;12.960;2024-03-17T01:53:02;97469.44;;;19.30;43.71
70434;BME280;57876;47.792;12.960;2024-03-17T01:55:29;97472.19;;;19.30;43.69
70434;BME280;57876;47.792;12.960;2024-03-17T01:57:54;97463.16;;;19.29;43.61
70434;BME280;57876;47.792;12.960;2024-03-17T02:00:18;97462.38;;;19.29;43.68
70434;BME280;57876;47.792;12.960;2024-03-17T02:02:43;97455.25;;;19.28;43.51
70434;BME280;57876;47.792;12.960;2024-03-17T02:05:08;97457.19;;;19.27;43.53
70434;BME280;57876;47.792;12.960;2024-03-17T02:07:32;97463.81;;;19.26;43.52
70434;BME280;57876;47.792;12.960;2024-03-17T02:09:57;97455.91;;;19.25;43.62
70434;BME280;57876;47.792;12.960;2024-03-17T02:12:21;97457.03;;;19.24;43.52
70434;BME280;57876;47.792;12.960;2024-03-17T02:14:45;97459.78;;;19.24;43.72
70434;BME280;57876;47.792;12.960;2024-03-17T02:17:10;97462.53;;;19.24;43.35
70434;BME280;57876;47.792;12.960;2024-03-17T02:19:35;97460.91;;;19.23;43.42
70434;BME280;57876;47.792;12.960;2024-03-17T02:21:59;97455.41;;;19.23;43.65
70434;BME280;57876;47.792;12.960;2024-03-17T02:24:23;97462.84;;;19.22;43.48
70434;BME280;57876;47.792;12.960;2024-03-17T02:26:48;97450.28;;;19.21;43.56
70434;BME280;57876;47.792;12.960;2024-03-17T02:29:12;97451.06;;;19.22;43.69
70434;BME280;57876;47.792;12.960;2024-03-17T02:31:37;97449.94;;;19.23;43.59
70434;BME280;57876;47.792;12.960;2024-03-17T02:34:01;97451.06;;;19.22;43.86
70434;BME280;57876;47.792;12.960;2024-03-17T02:36:25;97449.63;;;19.24;44.02
70434;BME280;57876;47.792;12.960;2024-03-17T02:38:50;97439.44;;;19.25;43.60
70434;BME280;57876;47.792;12.960;2024-03-17T02:41:33;97430.91;;;19.26;43.67
70434;BME280;57876;47.792;12.960;2024-03-17T02:43:58;97433.31;;;19.28;43.71
70434;BME280;57876;47.792;12.960;2024-03-17T02:46:22;97440.72;;;19.27;43.54
70434;BME280;57876;47.792;12.960;2024-03-17T02:48:52;97440.41;;;19.29;43.68
70434;BME280;57876;47.792;12.960;2024-03-17T02:51:18;97443.16;;;19.29;43.71
70434;BME280;57876;47.792;12.960;2024-03-17T02:53:44;97434.94;;;19.29;43.72
70434;BME280;57876;47.792;12.960;2024-03-17T02:56:09;97437.69;;;19.29;43.63
70434;BME280;57876;47.792;12.960;2024-03-17T02:58:37;97440.72;;;19.27;43.69
70434;BME280;57876;47.792;12.960;2024-03-17T03:01:06;97436.38;;;19.26;43.83
70434;BME280;57876;47.792;12.960;2024-03-17T03:03:33;97441.88;;;19.26;43.76
70434;BME280;57876;47.792;12.960;2024-03-17T03:05:58;97435.59;;;19.26;43.36
70434;BME280;57876;47.792;12.960;2024-03-17T03:08:25;97433.97;;;19.25;43.60
70434;BME280;57876;47.792;12.960;2024-03-17T03:10:49;97430.72;;;19.23;43.74
70434;BME280;57876;47.792;12.960;2024-03-17T03:13:13;97429.94;;;19.22;44.03
70434;BME280;57876;47.792;12.960;2024-03-17T03:15:38;97429.94;;;19.22;43.47
70434;BME280;57876;47.792;12.960;2024-03-17T03:18:02;97418.16;;;19.22;43.67
70434;BME280;57876;47.792;12.960;2024-03-17T03:20:27;97420.91;;;19.22;44.22
70434;BME280;57876;47.792;12.960;2024-03-17T03:22:52;97417.34;;;19.21;43.79
70434;BME280;57876;47.792;12.960;2024-03-17T03:25:16;97407.38;;;19.17;43.53
70434;BME280;57876;47.792;12.960;2024-03-17T03:27:41;97412.53;;;19.18;43.82
70434;BME280;57876;47.792;12.960;2024-03-17T03:30:05;97413.34;;;19.19;43.73
70434;BME280;57876;47.792;12.960;2024-03-17T03:32:32;97415.59;;;19.17;43.59
70434;BME280;57876;47.792;12.960;2024-03-17T03:34:57;97401.56;;;19.18;43.61
70434;BME280;57876;47.792;12.960;2024-03-17T03:37:21;97407.84;;;19.19;43.75
70434;BME280;57876;47.792;12.960;2024-03-17T03:39:45;97411.72;;;19.18;43.69
70434;BME280;57876;47.792;12.960;2024-03-17T03:42:10;97414.94;;;19.20;43.55
70434;BME280;57876;47.792;12.960;2024-03-17T03:44:34;97413.34;;;19.19;43.51
70434;BME280;57876;47.792;12.960;2024-03-17T03:46:59;97415.41;;;19.22;43.73
70434;BME280;57876;47.792;12.960;2024-03-17T03:49:25;97422.50;;;19.23;43.91
70434;BME280;57876;47.792;12.960;2024-03-17T03:51:49;97419.75;;;19.23;43.56
70434;BME280;57876;47.792;12.960;2024-03-17T03:54:14;97408.78;;;19.23;43.81
70434;BME280;57876;47.792;12.960;2024-03-17T03:56:38;97410.41;;;19.24;43.69
70434;BME280;57876;47.792;12.960;2024-03-17T03:59:03;97410.41;;;19.24;43.88
70434;BME280;57876;47.792;12.960;2024-03-17T04:01:29;97407.69;;;19.24;43.68
70434;BME280;57876;47.792;12.960;2024-03-17T04:03:54;97402.50;;;19.22;43.52
70434;BME280;57876;47.792;12.960;2024-03-17T04:06:19;97398.66;;;19.23;43.45
70434;BME280;57876;47.792;12.960;2024-03-17T04:08:43;97401.03;;;19.25;43.75
70434;BME280;57876;47.792;12.960;2024-03-17T04:11:08;97396.38;;;19.25;43.62
70434;BME280;57876;47.792;12.960;2024-03-17T04:13:33;97402.69;;;19.26;43.61
70434;BME280;57876;47.792;12.960;2024-03-17T04:15:59;97407.50;;;19.29;43.73
70434;BME280;57876;47.792;12.960;2024-03-17T04:18:24;97405.88;;;19.28;43.71
70434;BME280;57876;47.792;12.960;2024-03-17T04:20:49;97388.31;;;19.29;44.00
70434;BME280;57876;47.792;12.960;2024-03-17T04:23:13;97395.88;;;19.32;43.57
70434;BME280;57876;47.792;12.960;2024-03-17T04:25:39;97395.88;;;19.32;43.73
70434;BME280;57876;47.792;12.960;2024-03-17T04:28:03;97403.44;;;19.35;43.58
70434;BME280;57876;47.792;12.960;2024-03-17T04:30:28;97402.31;;;19.36;43.79
70434;BME280;57876;47.792;12.960;2024-03-17T04:32:52;97406.81;;;19.41;43.52
70434;BME280;57876;47.792;12.960;2024-03-17T04:35:17;97406.81;;;19.41;43.73
70434;BME280;57876;47.792;12.960;2024-03-17T04:37:41;97397.13;;;19.43;43.70
70434;BME280;57876;47.792;12.960;2024-03-17T04:40:07;97400.03;;;19.47;43.64
70434;BME280;57876;47.792;12.960;2024-03-17T04:42:33;97400.50;;;19.49;43.54
70434;BME280;57876;47.792;12.960;2024-03-17T04:44:57;97401.28;;;19.49;43.66
70434;BME280;57876;47.792;12.960;2024-03-17T04:47:22;97401.47;;;19.53;43.57
70434;BME280;57876;47.792;12.960;2024-03-17T04:49:46;97399.03;;;19.51;43.52
70434;BME280;57876;47.792;12.960;2024-03-17T04:52:12;97407.75;;;19.53;43.44
70434;BME280;57876;47.792;12.960;2024-03-17T04:54:36;97395.97;;;19.53;43.58
70434;BME280;57876;47.792;12.960;2024-03-17T04:57:01;97389.69;;;19.52;43.74
70434;BME280;57876;47.792;12.960;2024-03-17T04:59:26;97366.91;;;19.52;43.82
70434;BME280;57876;47.792;12.960;2024-03-17T05:01:51;97376.59;;;19.49;43.57
70434;BME280;57876;47.792;12.960;2024-03-17T05:04:16;97378.22;;;19.50;43.40
70434;BME280;57876;47.792;12.960;2024-03-17T05:06:40;97375.50;;;19.50;43.35
70434;BME280;57876;47.792;12.960;2024-03-17T05:09:06;97386.47;;;19.50;43.44
70434;BME280;57876;47.792;12.960;2024-03-17T05:11:30;97393.41;;;19.48;43.57
70434;BME280;57876;47.792;12.960;2024-03-17T05:13:55;97401.66;;;19.48;43.68
70434;BME280;57876;47.792;12.960;2024-03-17T05:16:21;97392.94;;;19.46;43.57
70434;BME280;57876;47.792;12.960;2024-03-17T05:18:48;97405.84;;;19.45;43.73
70434;BME280;57876;47.792;12.960;2024-03-17T05:21:13;97388.59;;;19.45;43.81
70434;BME280;57876;47.792;12.960;2024-03-17T05:23:37;97388.59;;;19.45;43.53
70434;BME280;57876;47.792;12.960;2024-03-17T05:26:02;97392.44;;;19.44;43.42
70434;BME280;57876;47.792;12.960;2024-03-17T05:28:28;97390.97;;;19.46;43.44
70434;BME280;57876;47.792;12.960;2024-03-17T05:30:53;97396.47;;;19.46;43.67
70434;BME280;57876;47.792;12.960;2024-03-17T05:33:19;97401.97;;;19.46;43.41
70434;BME280;57876;47.792;12.960;2024-03-17T05:35:52;97403.59;;;19.47;43.40
70434;BME280;57876;47.792;12.960;2024-03-17T05:38:17;97405.19;;;19.48;43.56
70434;BME280;57876;47.792;12.960;2024-03-17T05:40:42;97408.41;;;19.50;43.58
70434;BME280;57876;47.792;12.960;2024-03-17T05:43:06;97408.91;;;19.52;43.41
70434;BME280;57876;47.792;12.960;2024-03-17T05:45:31;97408.91;;;19.52;43.63
70434;BME280;57876;47.792;12.960;2024-03-17T05:47:56;97421.16;;;19.55;43.70
70434;BME280;57876;47.792;12.960;2024-03-17T05:50:20;97416.47;;;19.55;43.55
70434;BME280;57876;47.792;12.960;2024-03-17T05:52:45;97418.06;;;19.56;43.33
70434;BME280;57876;47.792;12.960;2024-03-17T05:55:09;97420.81;;;19.56;43.41
70434;BME280;57876;47.792;12.960;2024-03-17T05:57:35;97423.72;;;19.60;43.52
70434;BME280;57876;47.792;12.960;2024-03-17T05:59:59;97417.41;;;19.59;43.37
70434;BME280;57876;47.792;12.960;2024-03-17T06:02:24;97409.03;;;19.56;43.41
70434;BME280;57876;47.792;12.960;2024-03-17T06:04:48;97416.59;;;19.59;43.42
70434;BME280;57876;47.792;12.960;2024-03-17T06:07:13;97414.22;;;19.57;43.46
70434;BME280;57876;47.792;12.960;2024-03-17T06:09:37;97412.59;;;19.56;43.29
70434;BME280;57876;47.792;12.960;2024-03-17T06:12:02;97420.81;;;19.56;43.47
70434;BME280;57876;47.792;12.960;2024-03-17T06:14:26;97412.59;;;19.56;43.44
70434;BME280;57876;47.792;12.960;2024-03-17T06:16:50;97421.16;;;19.55;43.56
70434;BME280;57876;47.792;12.960;2024-03-17T06:19:15;97424.22;;;19.53;43.57
70434;BME280;57876;47.792;12.960;2024-03-17T06:21:39;97423.06;;;19.54;43.33
70434;BME280;57876;47.792;12.960;2024-03-17T06:24:04;97426.97;;;19.53;43.50
70434;BME280;57876;47.792;12.960;2024-03-17T06:26:30;97423.06;;;19.54;43.49
70434;BME280;57876;47.792;12.960;2024-03-17T06:28:57;97427.75;;;19.54;43.88
70434;BME280;57876;47.792;12.960;2024-03-17T06:31:21;97423.06;;;19.54;43.59
70434;BME280;57876;47.792;12.960;2024-03-17T06:33:46;97423.06;;;19.54;43.68
70434;BME280;57876;47.792;12.960;2024-03-17T06:36:11;97420.81;;;19.56;43.41
70434;BME280;57876;47.792;12.960;2024-03-17T06:38:35;97420.81;;;19.56;43.54
70434;BME280;57876;47.792;12.960;2024-03-17T06:41:00;97424.84;;;19.59;43.39
70434;BME280;57876;47.792;12.960;2024-03-17T06:43:24;97436.63;;;19.59;43.54
70434;BME280;57876;47.792;12.960;2024-03-17T06:45:58;97437.09;;;19.62;43.50
70434;BME280;57876;47.792;12.960;2024-03-17T06:48:24;97424.53;;;19.61;43.62
70434;BME280;57876;47.792;12.960;2024-03-17T06:50:49;97426.13;;;19.62;43.63
70434;BME280;57876;47.792;12.960;2024-03-17T06:53:13;97426.94;;;19.62;43.42
70434;BME280;57876;47.792;12.960;2024-03-17T06:55:38;97431.63;;;19.62;43.49
70434;BME280;57876;47.792;12.960;2024-03-17T06:58:02;97433.56;;;19.61;43.55
70434;BME280;57876;47.792;12.960;2024-03-17T07:00:27;97436.31;;;19.61;43.37
70434;BME280;57876;47.792;12.960;2024-03-17T07:02:51;97441.31;;;19.59;43.55
70434;BME280;57876;47.792;12.960;2024-03-17T07:05:16;97440.19;;;19.60;43.47
70434;BME280;57876;47.792;12.960;2024-03-17T07:07:41;97438.56;;;19.59;43.48
70434;BME280;57876;47.792;12.960;2024-03-17T07:10:06;97436.16;;;19.57;43.35
70434;BME280;57876;47.792;12.960;2024-03-17T07:12:30;97445.50;;;19.56;43.45
70434;BME280;57876;47.792;12.960;2024-03-17T07:14:55;97447.44;;;19.56;43.51
70434;BME280;57876;47.792;12.960;2024-03-17T07:17:19;97442.44;;;19.58;43.40
70434;BME280;57876;47.792;12.960;2024-03-17T07:19:43;97440.03;;;19.56;43.39
70434;BME280;57876;47.792;12.960;2024-03-17T07:22:08;97440.03;;;19.56;43.65
70434;BME280;57876;47.792;12.960;2024-03-17T07:24:32;97444.41;;;19.57;43.55
70434;BME280;57876;47.792;12.960;2024-03-17T07:26:57;97449.53;;;19.59;43.51
70434;BME280;57876;47.792;12.960;2024-03-17T07:29:22;97440.81;;;19.57;43.61
70434;BME280;57876;47.792;12.960;2024-03-17T07:31:47;97444.53;;;19.61;43.51
70434;BME280;57876;47.792;12.960;2024-03-17T07:34:11;97439.84;;;19.62;43.51
70434;BME280;57876;47.792;12.960;2024-03-17T07:36:36;97440.34;;;19.64;43.44
70434;BME280;57876;47.792;12.960;2024-03-17T07:39:00;97434.84;;;19.64;43.43
70434;BME280;57876;47.792;12.960;2024-03-17T07:41:24;97438.06;;;19.66;43.49
70434;BME280;57876;47.792;12.960;2024-03-17T07:43:49;97443.56;;;19.66;43.38
70434;BME280;57876;47.792;12.960;2024-03-17T07:46:13;97439.69;;;19.67;43.76
70434;BME280;57876;47.792;12.960;2024-03-17T07:48:40;97436.97;;;19.67;43.39
70434;BME280;57876;47.792;12.960;2024-03-17T07:51:07;97436.97;;;19.67;43.34
70434;BME280;57876;47.792;12.960;2024-03-17T07:53:33;97430.94;;;19.65;43.56
70434;BME280;57876;47.792;12.960;2024-03-17T07:56:01;97438.06;;;19.66;43.40
70434;BME280;57876;47.792;12.960;2024-03-17T07:58:28;97440.34;;;19.64;43.47
70434;BME280;57876;47.792;12.960;2024-03-17T08:00:56;97427.72;;;19.63;43.49
70434;BME280;57876;47.792;12.960;2024-03-17T08:03:21;97420.63;;;19.62;43.25
70434;BME280;57876;47.792;12.960;2024-03-17T08:05:51;97417.88;;;19.62;43.30
70434;BME280;57876;47.792;12.960;2024-03-17T08:08:16;97426.47;;;19.60;43.33
70434;BME280;57876;47.792;12.960;2024-03-17T08:10:41;97423.72;;;19.60;43.46
70434;BME280;57876;47.792;12.960;2024-03-17T08:13:06;97419.69;;;19.57;43.40
70434;BME280;57876;47.792;12.960;2024-03-17T08:15:33;97423.56;;;19.56;43.38
70434;BME280;57876;47.792;12.960;2024-03-17T08:17:57;97421.97;;;19.55;43.32
70434;BME280;57876;47.792;12.960;2024-03-17T08:20:22;97410.97;;;19.55;43.54
70434;BME280;57876;47.792;12.960;2024-03-17T08:22:47;97410.19;;;19.55;43.29
70434;BME280;57876;47.792;12.960;2024-03-17T08:25:11;97399.22;;;19.55;43.42
70434;BME280;57876;47.792;12.960;2024-03-17T08:27:36;97395.63;;;19.54;43.36
70434;BME280;57876;47.792;12.960;2024-03-17T08:30:01;97400.81;;;19.56;43.35
70434;BME280;57876;47.792;12.960;2024-03-17T08:32:26;97391.44;;;19.57;43.42
70434;BME280;57876;47.792;12.960;2024-03-17T08:34:50;97384.03;;;19.57;43.44
70434;BME280;57876;47.792;12.960;2024-03-17T08:37:15;97374.66;;;19.58;43.44
70434;BME280;57876;47.792;12.960;2024-03-17T08:39:39;97380.94;;;19.59;43.42
70434;BME280;57876;47.792;12.960;2024-03-17T08:42:03;97368.00;;;19.59;43.55
70434;BME280;57876;47.792;12.960;2024-03-17T08:44:28;97368.38;;;19.58;43.41
70434;BME280;57876;47.792;12.960;2024-03-17T08:46:52;97365.28;;;19.59;43.23
70434;BME280;57876;47.792;12.960;2024-03-17T08:49:17;97373.19;;;19.61;43.38
70434;BME280;57876;47.792;12.960;2024-03-17T08:51:41;97358.81;;;19.64;43.37
70434;BME280;57876;47.792;12.960;2024-03-17T08:54:05;97361.41;;;19.69;43.56
70434;BME280;57876;47.792;12.960;2024-03-17T08:56:30;97363.81;;;19.71;43.52
70434;BME280;57876;47.792;12.960;2024-03-17T08:58:54;97356.03;;;19.73;43.93
70434;BME280;57876;47.792;12.960;2024-03-17T09:01:18;97355.25;;;19.72;43.56
70434;BME280;57876;47.792;12.960;2024-03-17T09:03:43;97355.25;;;19.72;43.80
70434;BME280;57876;47.792;12.960;2024-03-17T09:06:15;97351.69;;;19.72;43.84
70434;BME280;57876;47.792;12.960;2024-03-17T09:08:43;97345.41;;;19.71;43.97
70434;BME280;57876;47.792;12.960;2024-03-17T09:11:12;97352.84;;;19.71;44.05
70434;BME280;57876;47.792;12.960;2024-03-17T09:13:38;97347.00;;;19.72;43.96
70434;BME280;57876;47.792;12.960;2024-03-17T09:16:02;97344.25;;;19.72;44.18
70434;BME280;57876;47.792;12.960;2024-03-17T09:18:31;97343.59;;;19.75;44.09
70434;BME280;57876;47.792;12.960;2024-03-17T09:23:22;97344.56;;;19.79;44.15
70434;BME280;57876;47.792;12.960;2024-03-17T09:25:57;97341.16;;;19.83;44.30
70434;BME280;57876;47.792;12.960;2024-03-17T09:28:22;97337.59;;;19.82;44.09
70434;BME280;57876;47.792;12.960;2024-03-17T09:30:47;97339.69;;;19.85;44.10
70434;BME280;57876;47.792;12.960;2024-03-17T09:33:11;97341.63;;;19.85;44.33
70434;BME280;57876;47.792;12.960;2024-03-17T09:35:36;97340.00;;;19.84;44.44
70434;BME280;57876;47.792;12.960;2024-03-17T09:38:00;97341.28;;;19.86;44.24
70434;BME280;57876;47.792;12.960;2024-03-17T09:40:25;97330.78;;;19.88;44.20
70434;BME280;57876;47.792;12.960;2024-03-17T09:42:49;97336.41;;;19.92;44.07
70434;BME280;57876;47.792;12.960;2024-03-17T09:45:14;97332.53;;;19.93;44.52
70434;BME280;57876;47.792;12.960;2024-03-17T09:47:40;97335.75;;;19.95;44.19
70434;BME280;57876;47.792;12.960;2024-03-17T09:50:13;97330.25;;;19.95;44.68
70434;BME280;57876;47.792;12.960;2024-03-17T09:52:38;97331.88;;;19.96;44.43
70434;BME280;57876;47.792;12.960;2024-03-17T09:55:09;97327.84;;;19.93;44.55
70434;BME280;57876;47.792;12.960;2024-03-17T09:57:35;97319.91;;;19.92;44.48
70434;BME280;57876;47.792;12.960;2024-03-17T10:00:04;97329.44;;;19.94;44.67
70434;BME280;57876;47.792;12.960;2024-03-17T10:02:44;97329.44;;;19.94;44.51
70434;BME280;57876;47.792;12.960;2024-03-17T10:05:21;97326.25;;;19.92;44.66
70434;BME280;57876;47.792;12.960;2024-03-17T10:07:46;97319.13;;;19.91;44.72
70434;BME280;57876;47.792;12.960;2024-03-17T10:10:11;97319.78;;;19.88;44.63
70434;BME280;57876;47.792;12.960;2024-03-17T10:12:40;97319.66;;;19.85;44.68
70434;BME280;57876;47.792;12.960;2024-03-17T10:15:05;97319.50;;;19.81;44.88
70434;BME280;57876;47.792;12.960;2024-03-17T10:17:33;97311.63;;;19.79;44.64
70434;BME280;57876;47.792;12.960;2024-03-17T10:20:15;97307.59;;;19.77;44.62
70434;BME280;57876;47.792;12.960;2024-03-17T10:22:40;97311.31;;;19.72;44.59
70434;BME280;57876;47.792;12.960;2024-03-17T10:25:04;97302.63;;;19.70;44.58
70434;BME280;57876;47.792;12.960;2024-03-17T10:27:29;97299.06;;;19.70;44.61
70434;BME280;57876;47.792;12.960;2024-03-17T10:29:54;97295.53;;;19.69;44.45
70434;BME280;57876;47.792;12.960;2024-03-17T10:32:20;97288.44;;;19.68;44.44
70434;BME280;57876;47.792;12.960;2024-03-17T10:34:48;97283.75;;;19.69;44.25
70434;BME280;57876;47.792;12.960;2024-03-17T10:37:17;97290.03;;;19.69;44.50
70434;BME280;57876;47.792;12.960;2024-03-17T10:39:44;97292.47;;;19.71;44.55
70434;BME280;57876;47.792;12.960;2024-03-17T10:42:10;97292.47;;;19.71;44.45
70434;BME280;57876;47.792;12.960;2024-03-17T10:44:36;97291.00;;;19.73;44.46
70434;BME280;57876;47.792;12.960;2024-03-17T10:47:02;97287.91;;;19.75;44.46
70434;BME280;57876;47.792;12.960;2024-03-17T10:49:29;97285.63;;;19.77;44.30
70434;BME280;57876;47.792;12.960;2024-03-17T10:51:58;97283.69;;;19.77;44.20
70434;BME280;57876;47.792;12.960;2024-03-17T10:54:26;97286.44;;;19.77;44.28
70434;BME280;57876;47.792;12.960;2024-03-17T10:56:53;97284.84;;;19.76;44.12
70434;BME280;57876;47.792;12.960;2024-03-17T10:59:19;97274.66;;;19.77;44.15
70434;BME280;57876;47.792;12.960;2024-03-17T11:01:47;97276.94;;;19.75;44.18
70434;BME280;57876;47.792;12.960;2024-03-17T11:04:12;97262.06;;;19.76;44.15
70434;BME280;57876;47.792;12.960;2024-03-17T11:06:38;97264.81;;;19.76;44.12
70434;BME280;57876;47.792;12.960;2024-03-17T11:09:02;97261.59;;;19.74;44.17
70434;BME280;57876;47.792;12.960;2024-03-17T11:11:37;97263.56;;;19.73;44.39
70434;BME280;57876;47.792;12.960;2024-03-17T11:14:17;97258.38;;;19.72;44.26
70434;BME280;57876;47.792;12.960;2024-03-17T11:16:44;97264.19;;;19.70;44.30
70434;BME280;57876;47.792;12.960;2024-03-17T11:19:14;97263.75;;;19.68;44.02
70434;BME280;57876;47.792;12.960;2024-03-17T11:21:39;97260.16;;;19.68;44.24
70434;BME280;57876;47.792;12.960;2024-03-17T11:24:04;97249.84;;;19.65;44.10
70434;BME280;57876;47.792;12.960;2024-03-17T11:26:30;97255.31;;;19.65;44.05
70434;BME280;57876;47.792;12.960;2024-03-17T11:28:55;97259.69;;;19.66;44.06
70434;BME280;57876;47.792;12.960;2024-03-17T11:33:57;97248.56;;;19.62;43.93
70434;BME280;57876;47.792;12.960;2024-03-17T11:36:36;97247.28;;;19.59;44.28
70434;BME280;57876;47.792;12.960;2024-03-17T11:39:08;97241.78;;;19.59;44.11
70434;BME280;57876;47.792;12.960;2024-03-17T11:41:44;97240.19;;;19.58;44.00
70434;BME280;57876;47.792;12.960;2024-03-17T11:46:45;97223.72;;;19.58;43.94
70434;BME280;57876;47.792;12.960;2024-03-17T11:51:48;97216.78;;;19.61;44.02
70434;BME280;57876;47.792;12.960;2024-03-17T11:54:17;97208.88;;;19.59;44.04
70434;BME280;57876;47.792;12.960;2024-03-17T11:56:48;97202.72;;;19.63;44.17
70434;BME280;57876;47.792;12.960;2024-03-17T11:59:13;97197.22;;;19.63;43.93
70434;BME280;57876;47.792;12.960;2024-03-17T12:01:39;97201.09;;;19.62;44.25
70434;BME280;57876;47.792;12.960;2024-03-17T12:04:07;97202.72;;;19.63;43.93
70434;BME280;57876;47.792;12.960;2024-03-17T12:06:31;97205.81;;;19.61;43.95
70434;BME280;57876;47.792;12.960;2024-03-17T12:09:20;97194.16;;;19.64;44.13
70434;BME280;57876;47.792;12.960;2024-03-17T12:11:45;97207.41;;;19.62;44.18
70434;BME280;57876;47.792;12.960;2024-03-17T12:14:15;97197.56;;;19.61;43.96
70434;BME280;57876;47.792;12.960;2024-03-17T12:16:47;97197.56;;;19.61;43.95
70434;BME280;57876;47.792;12.960;2024-03-17T12:19:12;97185.00;;;19.60;43.85
70434;BME280;57876;47.792;12.960;2024-03-17T12:21:37;97175.94;;;19.59;44.12
70434;BME280;57876;47.792;12.960;2024-03-17T12:24:01;97177.88;;;19.59;43.86
70434;BME280;57876;47.792;12.960;2024-03-17T12:26:26;97173.53;;;19.58;44.02
70434;BME280;57876;47.792;12.960;2024-03-17T12:28:51;97171.91;;;19.57;44.14
70434;BME280;57876;47.792;12.960;2024-03-17T12:31:15;97153.88;;;19.56;44.07
70434;BME280;57876;47.792;12.960;2024-03-17T12:33:41;97156.94;;;19.54;44.05
70434;BME280;57876;47.792;12.960;2024-03-17T12:36:09;97157.28;;;19.53;44.10
70434;BME280;57876;47.792;12.960;2024-03-17T12:38:33;97151.00;;;19.52;43.88
70434;BME280;57876;47.792;12.960;2024-03-17T12:40:58;97153.75;;;19.52;44.07
70434;BME280;57876;47.792;12.960;2024-03-17T12:43:22;97135.66;;;19.51;44.16
70434;BME280;57876;47.792;12.960;2024-03-17T12:45:47;97130.16;;;19.51;43.91
70434;BME280;57876;47.792;12.960;2024-03-17T12:48:14;97130.97;;;19.52;44.02
70434;BME280;57876;47.792;12.960;2024-03-17T12:50:44;97128.56;;;19.50;43.75
70434;BME280;57876;47.792;12.960;2024-03-17T12:53:16;97139.66;;;19.54;44.03